Findhorn, United Kingdom
Current Conditions -  °F | °C
As of 1:50 PM on Thursday 29 Jan 2015 (Local Time) from EGQK Reporting Station
Few Clouds Few Clouds  
Wind Chill: 28°   Ceiling: Unl
Heat Index: 37°   Visibility: 6mi
Dew Point: 32°   Wind: 16mph
Humidity: 81%   Direction: 250°WSW
Pressure: 28.67"   Gusts: NA
Location:  57.66°N, 3.61°W
Report Text: EGQK 291350Z AUTO 25014KT 9999 FEW100/// 03/M00 Q0971
Loading
Personal Weather Stations






























Interactive Weather Map New forecast layout! Learn more

10-Day Weather Forecast

Advertisements
Track Severe Weather on mobile